Time;durP1;ratioP1;P1;durP2;ratioP2;P2;SDS_P1;SDS_P2;PMS_P1;PMS_P2;Temp;Humidity;BMP_temperature;BMP_pressure;BME280_temperature;BME280_humidity;BME280_pressure;Samples;Min_cycle;Max_cycle;Signal;HPM_P1;HPM_P2
2022/05/23 00:00:45;;;;;;;5.88;0.65;;;16.00;99.90;;;;;;5016669;28;20046;-69
2022/05/23 00:03:10;;;;;;;0.00;0.00;;;16.00;99.90;;;;;;5016967;28;20076;-69
2022/05/23 00:05:37;;;;;;;0.00;0.00;;;15.90;99.90;;;;;;5024503;28;20047;-69
2022/05/23 00:08:03;;;;;;;0.00;0.00;;;15.90;99.90;;;;;;5016603;28;20045;-69
2022/05/23 00:10:29;;;;;;;0.05;0.05;;;15.90;99.90;;;;;;5027671;28;20120;-69
2022/05/23 00:12:55;;;;;;;0.00;0.00;;;15.80;99.90;;;;;;5018827;28;20034;-69
2022/05/23 00:15:21;;;;;;;0.05;0.05;;;15.80;99.90;;;;;;5023041;28;20034;-69
2022/05/23 00:17:46;;;;;;;0.50;0.22;;;15.80;99.90;;;;;;5027560;28;20579;-69
2022/05/23 00:20:14;;;;;;;0.00;0.00;;;15.80;99.90;;;;;;5023576;28;20076;-69
2022/05/23 00:22:40;;;;;;;0.10;0.10;;;15.80;99.90;;;;;;5012587;28;20045;-69
2022/05/23 00:25:09;;;;;;;0.00;0.00;;;15.80;99.90;;;;;;5025065;28;20527;-69
2022/05/23 00:27:37;;;;;;;0.10;0.10;;;15.80;99.90;;;;;;5024981;28;20477;-69
2022/05/23 00:30:08;;;;;;;0.00;0.00;;;15.70;99.90;;;;;;5022618;28;20041;-69
2022/05/23 00:35:17;;;;;;;0.00;0.00;;;15.70;99.90;;;;;;5022654;28;20551;-69
2022/05/23 00:37:43;;;;;;;0.00;0.00;;;15.70;99.90;;;;;;5015196;28;20128;-69
2022/05/23 00:40:22;;;;;;;1.17;0.45;;;15.70;99.90;;;;;;5019536;28;20507;-69
2022/05/23 00:45:33;;;;;;;0.10;0.10;;;15.60;99.90;;;;;;5026090;28;20045;-69
2022/05/23 00:47:59;;;;;;;0.00;0.00;;;15.60;99.90;;;;;;5031387;28;20041;-69
2022/05/23 00:50:24;;;;;;;0.00;0.00;;;15.70;99.90;;;;;;5029675;28;20049;-69
2022/05/23 00:52:56;;;;;;;0.00;0.00;;;15.60;99.90;;;;;;5026460;28;20045;-69
2022/05/23 00:55:32;;;;;;;0.10;0.10;;;15.60;99.90;;;;;;5021226;28;20175;-69
2022/05/23 00:58:06;;;;;;;0.00;0.00;;;15.60;99.90;;;;;;5022311;28;20057;-69
2022/05/23 01:00:32;;;;;;;;;;;15.60;99.90;;;;;;5015788;28;20132;-69
2022/05/23 01:03:03;;;;;;;0.00;0.00;;;15.70;99.90;;;;;;5029379;28;19921;-69
2022/05/23 01:05:29;;;;;;;0.47;0.20;;;15.70;99.90;;;;;;5011917;28;20062;-69
2022/05/23 01:07:55;;;;;;;0.00;0.00;;;15.80;99.90;;;;;;5025685;28;20057;-69
2022/05/23 01:10:20;;;;;;;0.00;0.00;;;15.70;99.90;;;;;;5027140;28;20072;-69
2022/05/23 01:12:46;;;;;;;0.00;0.00;;;15.70;99.90;;;;;;5029737;28;20060;-69
2022/05/23 01:15:24;;;;;;;0.00;0.00;;;15.70;99.90;;;;;;5017269;28;20057;-69
2022/05/23 01:17:50;;;;;;;0.00;0.00;;;15.70;99.90;;;;;;5025610;28;20440;-69
2022/05/23 01:20:17;;;;;;;0.00;0.00;;;15.70;99.90;;;;;;5029095;28;20056;-69
2022/05/23 01:22:51;;;;;;;0.00;0.00;;;15.70;99.90;;;;;;5017189;28;20217;-69
2022/05/23 01:25:33;;;;;;;0.85;0.85;;;15.70;99.90;;;;;;5021332;28;20038;-69
2022/05/23 01:28:00;;;;;;;0.10;0.10;;;15.70;99.90;;;;;;5016687;28;20100;-69
2022/05/23 01:30:26;;;;;;;0.00;0.00;;;15.80;99.90;;;;;;5028632;28;20037;-69
2022/05/23 01:32:51;;;;;;;3.83;0.30;;;15.70;99.90;;;;;;5027722;28;20057;-69
2022/05/23 01:35:17;;;;;;;0.00;0.00;;;15.70;99.90;;;;;;5022891;28;20049;-69
2022/05/23 01:37:43;;;;;;;0.08;0.08;;;15.80;99.90;;;;;;5016264;28;20049;-69
2022/05/23 01:40:13;;;;;;;0.20;0.20;;;15.70;99.90;;;;;;5028987;28;20053;-69
2022/05/23 01:42:39;;;;;;;0.05;0.05;;;15.80;99.90;;;;;;5027790;28;20045;-69
2022/05/23 01:45:05;;;;;;;0.20;0.20;;;15.70;99.90;;;;;;5021484;28;20050;-69
2022/05/23 01:47:31;;;;;;;0.15;0.05;;;15.70;99.90;;;;;;5021371;28;20137;-69
2022/05/23 01:49:56;;;;;;;0.10;0.10;;;15.80;99.90;;;;;;5031144;28;20370;-69
2022/05/23 01:52:22;;;;;;;0.10;0.10;;;15.80;99.90;;;;;;5027265;28;20084;-69
2022/05/23 01:54:47;;;;;;;0.00;0.00;;;15.80;99.90;;;;;;5020849;28;20049;-69
2022/05/23 01:57:13;;;;;;;0.00;0.00;;;15.80;99.90;;;;;;5014393;28;20049;-69
2022/05/23 02:02:23;;;;;;;0.10;0.10;;;15.70;99.90;;;;;;5010758;28;20133;-69
2022/05/23 02:04:50;;;;;;;0.00;0.00;;;15.70;99.90;;;;;;5027184;28;20135;-69
2022/05/23 02:07:16;;;;;;;0.10;0.10;;;15.70;99.90;;;;;;5026950;28;20042;-69
2022/05/23 02:09:42;;;;;;;0.10;0.10;;;15.70;99.90;;;;;;5026463;28;20095;-69
2022/05/23 02:12:09;;;;;;;0.03;0.03;;;15.70;99.90;;;;;;5028855;28;20103;-69
2022/05/23 02:14:35;;;;;;;0.10;0.10;;;15.70;99.90;;;;;;5010645;28;20149;-69
2022/05/23 02:17:00;;;;;;;0.10;0.10;;;15.60;99.90;;;;;;5020683;28;20053;-69
2022/05/23 02:19:30;;;;;;;0.10;0.10;;;15.60;99.90;;;;;;5011607;28;20402;-69
2022/05/23 02:21:55;;;;;;;0.00;0.00;;;15.60;99.90;;;;;;5026887;28;20045;-69
2022/05/23 02:24:23;;;;;;;0.10;0.10;;;15.60;99.90;;;;;;5028099;28;20038;-69
2022/05/23 02:26:49;;;;;;;0.03;0.03;;;15.50;99.90;;;;;;5013750;28;20053;-69
2022/05/23 02:29:15;;;;;;;0.10;0.10;;;15.60;99.90;;;;;;5027141;28;20042;-69
2022/05/23 02:31:41;;;;;;;1.45;0.80;;;15.60;99.90;;;;;;5028593;28;20041;-69
2022/05/23 02:34:07;;;;;;;0.20;0.17;;;15.50;99.90;;;;;;5015229;28;20044;-69
2022/05/23 02:36:32;;;;;;;0.10;0.10;;;15.50;99.90;;;;;;5023392;28;20050;-69
2022/05/23 02:38:58;;;;;;;0.10;0.10;;;15.50;99.90;;;;;;5009143;28;20061;-69
2022/05/23 02:41:23;;;;;;;0.10;0.10;;;15.40;99.90;;;;;;5027525;28;20135;-69
2022/05/23 02:43:49;;;;;;;0.05;0.05;;;15.40;99.90;;;;;;5011808;28;20046;-69
2022/05/23 02:46:15;;;;;;;0.00;0.00;;;15.40;99.90;;;;;;5018941;28;20041;-69
2022/05/23 02:48:41;;;;;;;0.05;0.05;;;15.40;99.90;;;;;;5027324;28;20452;-69
2022/05/23 02:51:07;;;;;;;0.32;0.32;;;15.30;99.90;;;;;;5020860;28;20056;-69
2022/05/23 02:53:32;;;;;;;0.00;0.00;;;15.30;99.90;;;;;;5013093;28;20065;-69
2022/05/23 02:55:58;;;;;;;0.13;0.13;;;15.20;99.90;;;;;;5008421;28;20478;-69
2022/05/23 02:58:24;;;;;;;0.00;0.00;;;15.20;99.90;;;;;;5014114;28;20053;-69
2022/05/23 03:00:49;;;;;;;0.10;0.10;;;15.20;99.90;;;;;;5009575;28;20788;-69
2022/05/23 03:03:15;;;;;;;0.17;0.17;;;15.20;99.90;;;;;;5024287;28;20057;-69
2022/05/23 03:05:44;;;;;;;0.00;0.00;;;15.20;99.90;;;;;;5015057;28;20056;-69
2022/05/23 03:08:11;;;;;;;0.00;0.00;;;15.10;99.90;;;;;;5021922;28;20045;-69
2022/05/23 03:10:38;;;;;;;0.00;0.00;;;15.10;99.90;;;;;;5013715;28;20037;-69
2022/05/23 03:13:06;;;;;;;0.10;0.10;;;15.10;99.90;;;;;;5017846;28;20041;-69
2022/05/23 03:15:33;;;;;;;0.10;0.10;;;15.10;99.90;;;;;;5027722;28;20045;-69
2022/05/23 03:17:59;;;;;;;0.08;0.08;;;15.00;99.90;;;;;;5020168;28;20060;-69
2022/05/23 03:20:25;;;;;;;0.00;0.00;;;15.00;99.90;;;;;;5028928;28;20049;-69
2022/05/23 03:28:21;;;;;;;0.00;0.00;;;14.90;99.90;;;;;;5026183;28;20065;-69
2022/05/23 03:30:47;;;;;;;0.00;0.00;;;14.80;99.90;;;;;;5026754;28;20545;-69
2022/05/23 03:33:13;;;;;;;0.10;0.10;;;14.80;99.90;;;;;;5019435;28;20129;-69
2022/05/23 03:35:39;;;;;;;0.10;0.10;;;14.80;99.90;;;;;;5023379;28;20060;-69
2022/05/23 03:38:06;;;;;;;0.10;0.10;;;14.80;99.90;;;;;;5025770;28;20060;-69
2022/05/23 03:40:34;;;;;;;0.38;0.32;;;14.70;99.90;;;;;;5028441;28;20497;-69
2022/05/23 03:43:00;;;;;;;0.03;0.03;;;14.80;99.90;;;;;;5014881;28;20057;-69
2022/05/23 03:45:26;;;;;;;0.00;0.00;;;14.80;99.90;;;;;;5008064;28;20525;-69
2022/05/23 03:47:53;;;;;;;0.20;0.20;;;14.70;99.90;;;;;;5019238;28;20073;-69
2022/05/23 03:50:24;;;;;;;0.10;0.10;;;14.70;99.90;;;;;;5024259;28;20056;-69
2022/05/23 03:52:49;;;;;;;8.20;1.35;;;14.70;99.90;;;;;;5011149;28;20138;-69
2022/05/23 03:55:15;;;;;;;0.00;0.00;;;14.60;99.90;;;;;;5019034;28;20128;-69
2022/05/23 03:57:40;;;;;;;0.10;0.10;;;14.70;99.90;;;;;;5024788;28;20041;-69
2022/05/23 04:00:08;;;;;;;0.00;0.00;;;14.60;99.90;;;;;;5015819;28;20042;-69
2022/05/23 04:02:34;;;;;;;0.10;0.10;;;14.70;99.90;;;;;;5021523;28;20053;-69
2022/05/23 04:05:00;;;;;;;0.00;0.00;;;14.70;99.90;;;;;;5026618;28;20072;-69
2022/05/23 04:07:26;;;;;;;0.22;0.22;;;14.60;99.90;;;;;;5024574;28;20037;-69
2022/05/23 04:09:52;;;;;;;0.00;0.00;;;14.70;99.90;;;;;;5011888;28;20046;-69
2022/05/23 04:12:18;;;;;;;0.65;0.65;;;14.60;99.90;;;;;;5013679;28;20048;-69
2022/05/23 04:14:43;;;;;;;0.10;0.10;;;14.60;99.90;;;;;;5018638;28;20058;-69
2022/05/23 04:17:09;;;;;;;0.00;0.00;;;14.60;99.90;;;;;;5017709;28;20065;-69
2022/05/23 04:19:35;;;;;;;0.10;0.10;;;14.60;99.90;;;;;;5026291;28;20081;-69
2022/05/23 04:22:01;;;;;;;0.32;0.32;;;14.60;99.90;;;;;;5021616;28;20457;-69
2022/05/23 04:24:26;;;;;;;0.03;0.03;;;14.60;99.90;;;;;;5016703;28;20100;-69
2022/05/23 04:26:54;;;;;;;0.00;0.00;;;14.60;99.90;;;;;;5006951;28;20457;-69
2022/05/23 04:29:20;;;;;;;0.47;0.47;;;14.60;99.90;;;;;;5026603;28;20535;-69
2022/05/23 04:31:46;;;;;;;0.10;0.10;;;14.60;99.90;;;;;;5019944;28;20506;-69
2022/05/23 04:36:55;;;;;;;0.10;0.10;;;14.60;99.90;;;;;;5021682;28;20069;-69
2022/05/23 04:39:21;;;;;;;0.20;0.20;;;14.60;99.90;;;;;;5008124;28;20034;-69
2022/05/23 04:41:46;;;;;;;0.00;0.00;;;14.70;99.90;;;;;;5013823;28;20099;-69
2022/05/23 04:44:12;;;;;;;0.10;0.10;;;14.70;99.90;;;;;;5024940;28;20049;-69
2022/05/23 04:49:39;;;;;;;0.08;0.08;;;14.60;99.90;;;;;;5022671;28;20053;-69
2022/05/23 04:49:41;;;;;;;0.32;0.32;;;14.60;99.90;;;;;;5013110;28;20046;-69
2022/05/23 04:52:09;;;;;;;0.10;0.10;;;14.60;99.90;;;;;;5026422;28;20436;-69
2022/05/23 04:54:36;;;;;;;0.08;0.08;;;14.70;99.90;;;;;;5018221;28;20042;-69
2022/05/23 04:57:02;;;;;;;0.00;0.00;;;14.60;99.90;;;;;;5008585;28;20655;-69
2022/05/23 04:59:28;;;;;;;0.13;0.13;;;14.60;99.90;;;;;;5023800;28;20067;-69
2022/05/23 05:01:53;;;;;;;0.00;0.00;;;14.60;99.90;;;;;;5009680;28;20137;-69
2022/05/23 05:04:19;;;;;;;0.20;0.20;;;14.60;99.90;;;;;;5023132;28;20152;-68
2022/05/23 05:06:44;;;;;;;0.05;0.05;;;14.70;99.90;;;;;;5025494;28;20052;-69
2022/05/23 05:09:10;;;;;;;0.10;0.10;;;14.70;99.90;;;;;;5013831;28;20046;-69
2022/05/23 05:11:37;;;;;;;1.65;0.75;;;14.70;99.90;;;;;;5011026;28;20050;-69
2022/05/23 05:14:05;;;;;;;0.13;0.13;;;14.70;99.90;;;;;;5020773;28;20068;-69
2022/05/23 05:16:31;;;;;;;0.10;0.10;;;14.70;99.90;;;;;;5022979;28;20053;-69
2022/05/23 05:18:56;;;;;;;0.00;0.00;;;14.80;99.90;;;;;;5024741;28;20401;-69
2022/05/23 05:21:23;;;;;;;0.10;0.10;;;14.70;99.90;;;;;;5029779;28;20038;-69
2022/05/23 05:23:49;;;;;;;0.00;0.00;;;14.70;99.90;;;;;;5029657;28;20491;-69
2022/05/23 05:26:14;;;;;;;0.15;0.15;;;14.70;99.90;;;;;;5016899;28;20502;-69
2022/05/23 05:28:40;;;;;;;0.17;0.17;;;14.80;99.90;;;;;;5023193;28;20037;-69
2022/05/23 05:31:26;;;;;;;0.10;0.10;;;14.70;99.90;;;;;;5013147;28;20065;-69
2022/05/23 05:34:06;;;;;;;0.32;0.32;;;14.70;99.90;;;;;;5026708;28;20125;-69
2022/05/23 05:36:38;;;;;;;0.47;0.35;;;14.70;99.90;;;;;;5012866;28;20049;-69
2022/05/23 05:39:06;;;;;;;0.00;0.00;;;14.70;99.90;;;;;;5020829;28;20042;-69
2022/05/23 05:41:41;;;;;;;0.15;0.15;;;14.80;99.90;;;;;;5011136;28;20441;-69
2022/05/23 05:44:12;;;;;;;0.68;0.63;;;14.80;99.90;;;;;;5025955;28;20057;-69
2022/05/23 05:46:41;;;;;;;0.30;0.30;;;14.90;99.90;;;;;;5017113;28;20037;-69
2022/05/23 05:49:12;;;;;;;0.00;0.00;;;15.00;99.90;;;;;;5016451;28;20054;-69
2022/05/23 05:51:40;;;;;;;0.20;0.20;;;15.00;99.90;;;;;;5023301;28;20420;-69
2022/05/23 05:54:08;;;;;;;0.00;0.00;;;15.10;99.90;;;;;;5013818;28;20045;-69
2022/05/23 05:56:34;;;;;;;1.65;0.55;;;15.10;99.90;;;;;;5012493;28;20616;-69
2022/05/23 05:59:00;;;;;;;0.10;0.10;;;15.20;99.90;;;;;;5025957;28;20065;-69
2022/05/23 06:01:25;;;;;;;0.10;0.10;;;15.20;99.90;;;;;;5030098;28;20625;-69
2022/05/23 06:03:51;;;;;;;0.10;0.10;;;15.30;99.90;;;;;;5019204;28;20056;-69
2022/05/23 06:11:45;;;;;;;0.05;0.05;;;15.50;99.90;;;;;;5015935;28;20534;-69
2022/05/23 06:14:10;;;;;;;0.40;0.40;;;15.60;99.90;;;;;;5019191;28;20128;-69
2022/05/23 06:16:37;;;;;;;0.10;0.10;;;15.60;99.90;;;;;;5028016;28;20077;-69
2022/05/23 06:19:04;;;;;;;0.00;0.00;;;15.70;99.90;;;;;;5030285;28;20095;-69
2022/05/23 06:21:29;;;;;;;0.10;0.10;;;15.70;99.90;;;;;;5018066;28;20049;-69
2022/05/23 06:23:56;;;;;;;0.90;0.40;;;15.80;99.90;;;;;;5027076;28;20053;-69
2022/05/23 06:26:26;;;;;;;0.45;0.45;;;15.90;99.90;;;;;;5020004;28;20060;-69
2022/05/23 06:28:51;;;;;;;0.00;0.00;;;16.00;99.90;;;;;;5010108;28;20038;-69
2022/05/23 06:31:17;;;;;;;0.22;0.22;;;16.10;99.90;;;;;;5019031;28;20049;-70
2022/05/23 06:33:43;;;;;;;0.05;0.05;;;16.10;99.90;;;;;;5021238;28;20050;-70
2022/05/23 06:36:11;;;;;;;0.20;0.20;;;16.20;99.90;;;;;;5017569;28;20408;-70
2022/05/23 06:38:37;;;;;;;0.00;0.00;;;16.30;99.90;;;;;;5026616;28;20042;-69
2022/05/23 06:41:06;;;;;;;0.00;0.00;;;16.40;99.90;;;;;;5009626;28;20099;-69
2022/05/23 06:43:32;;;;;;;0.00;0.00;;;16.40;99.90;;;;;;5009983;28;20607;-70
2022/05/23 06:45:59;;;;;;;0.30;0.30;;;16.40;99.90;;;;;;5008853;28;20041;-70
2022/05/23 06:48:26;;;;;;;0.00;0.00;;;16.40;99.90;;;;;;5011396;28;20493;-70
2022/05/23 06:50:52;;;;;;;0.20;0.20;;;16.40;99.90;;;;;;5010888;28;20532;-70
2022/05/23 06:53:21;;;;;;;0.00;0.00;;;16.40;99.90;;;;;;5024076;28;20053;-69
2022/05/23 06:55:48;;;;;;;0.00;0.00;;;16.50;99.90;;;;;;5021825;28;20489;-69
2022/05/23 06:58:14;;;;;;;0.10;0.10;;;16.60;99.90;;;;;;5026854;28;20049;-70
2022/05/23 07:00:41;;;;;;;0.08;0.08;;;16.60;99.90;;;;;;5024623;28;20033;-69
2022/05/23 07:03:07;;;;;;;0.08;0.08;;;16.70;99.90;;;;;;5026051;28;20053;-70
2022/05/23 07:13:48;;;;;;;0.10;0.10;;;17.30;99.90;;;;;;5020115;28;20101;-70
2022/05/23 07:16:17;;;;;;;0.00;0.00;;;17.50;99.90;;;;;;5028678;28;20045;-70
2022/05/23 07:18:44;;;;;;;0.20;0.20;;;17.70;99.90;;;;;;5027981;28;20069;-69
2022/05/23 07:21:09;;;;;;;0.22;0.20;;;17.80;99.90;;;;;;5019426;28;20053;-70
2022/05/23 07:23:36;;;;;;;0.00;0.00;;;17.80;99.90;;;;;;5007253;28;20045;-70
2022/05/23 07:26:04;;;;;;;1.02;0.43;;;17.80;99.90;;;;;;5008571;28;20089;-70
2022/05/23 07:28:30;;;;;;;0.10;0.10;;;17.80;99.90;;;;;;5009224;28;20041;-69
2022/05/23 07:30:56;;;;;;;2.28;0.80;;;17.90;99.90;;;;;;5008861;28;20052;-70
2022/05/23 07:33:21;;;;;;;0.77;0.55;;;18.00;99.90;;;;;;5015669;28;20120;-70
2022/05/23 07:35:59;;;;;;;0.10;0.10;;;18.00;99.90;;;;;;5009207;28;20045;-69
2022/05/23 07:38:25;;;;;;;0.30;0.25;;;18.00;99.90;;;;;;5005275;28;20054;-69
2022/05/23 07:40:52;;;;;;;0.75;0.75;;;18.10;99.90;;;;;;5010095;28;20068;-69
2022/05/23 07:43:19;;;;;;;0.52;0.52;;;18.10;99.90;;;;;;5027215;28;20057;-70
2022/05/23 07:45:45;;;;;;;0.17;0.17;;;18.00;99.90;;;;;;5026257;28;20041;-70
2022/05/23 07:48:10;;;;;;;0.05;0.05;;;18.00;99.90;;;;;;5015972;28;20045;-70
2022/05/23 07:50:37;;;;;;;0.10;0.10;;;18.10;99.90;;;;;;5008721;28;21481;-69
2022/05/23 08:01:16;;;;;;;1.67;0.32;;;18.40;99.90;;;;;;5028840;28;20045;-69
2022/05/23 08:03:42;;;;;;;0.32;0.30;;;18.40;99.90;;;;;;5019425;28;20060;-69
2022/05/23 08:06:09;;;;;;;0.10;0.10;;;18.40;99.90;;;;;;5013677;28;20473;-69
2022/05/23 08:08:35;;;;;;;0.85;0.60;;;18.50;99.90;;;;;;5019170;28;20049;-70
2022/05/23 08:11:01;;;;;;;0.03;0.03;;;18.60;99.90;;;;;;5020595;28;20111;-69
2022/05/23 08:13:27;;;;;;;0.03;0.03;;;18.80;99.90;;;;;;5013835;28;20046;-69
2022/05/23 08:15:52;;;;;;;0.20;0.20;;;18.80;99.90;;;;;;5013483;28;20045;-69
2022/05/23 08:18:18;;;;;;;0.20;0.20;;;18.90;99.90;;;;;;5007982;28;20077;-69
2022/05/23 08:20:44;;;;;;;0.32;0.32;;;19.00;99.90;;;;;;5022753;28;20043;-69
2022/05/23 08:23:10;;;;;;;0.10;0.10;;;19.00;99.90;;;;;;5026887;28;20045;-69
2022/05/23 08:25:36;;;;;;;0.00;0.00;;;19.10;99.90;;;;;;5016385;28;20107;-69
2022/05/23 08:28:02;;;;;;;0.00;0.00;;;19.10;99.90;;;;;;5010330;28;20077;-69
2022/05/23 08:30:28;;;;;;;0.00;0.00;;;19.10;99.90;;;;;;5028936;28;20100;-69
2022/05/23 08:32:54;;;;;;;0.20;0.20;;;19.10;99.90;;;;;;5021231;28;20494;-69
2022/05/23 08:35:21;;;;;;;0.10;0.10;;;19.10;99.90;;;;;;5008871;28;20052;-69
2022/05/23 08:37:47;;;;;;;0.00;0.00;;;19.30;99.90;;;;;;5008142;28;20567;-69
2022/05/23 08:40:13;;;;;;;1.50;0.88;;;19.30;99.90;;;;;;5014810;28;20045;-69
2022/05/23 08:42:49;;;;;;;0.15;0.15;;;19.30;99.90;;;;;;5008856;28;20061;-69
2022/05/23 08:45:35;;;;;;;0.10;0.10;;;19.40;99.90;;;;;;5023738;28;20624;-69
2022/05/23 08:48:27;;;;;;;4.57;1.10;;;19.40;99.90;;;;;;5021548;28;20062;-69
2022/05/23 08:51:18;;;;;;;0.35;0.35;;;19.50;99.90;;;;;;5026152;28;20095;-69
2022/05/23 08:53:50;;;;;;;0.00;0.00;;;19.50;99.90;;;;;;5032522;28;20500;-69
2022/05/23 08:56:32;;;;;;;0.10;0.10;;;19.50;99.90;;;;;;5030446;28;20049;-69
2022/05/23 08:59:04;;;;;;;0.00;0.00;;;19.60;99.90;;;;;;5013685;28;20052;-69
2022/05/23 09:01:53;;;;;;;0.20;0.20;;;19.70;99.90;;;;;;5023892;28;20310;-69
2022/05/23 09:04:54;;;;;;;0.00;0.00;;;19.80;99.90;;;;;;5030044;28;20057;-69
2022/05/23 09:07:40;;;;;;;0.00;0.00;;;19.90;99.90;;;;;;5015573;28;20037;-67
2022/05/23 09:10:14;;;;;;;1.63;1.50;;;20.00;99.90;;;;;;5024773;28;20136;-67
2022/05/23 09:12:39;;;;;;;0.15;0.15;;;20.10;99.90;;;;;;5022608;28;20771;-68
2022/05/23 09:15:06;;;;;;;0.25;0.25;;;20.20;99.90;;;;;;5031004;28;20075;-67
2022/05/23 09:17:37;;;;;;;0.35;0.35;;;20.30;99.90;;;;;;5029443;28;20053;-68
2022/05/23 09:20:33;;;;;;;0.10;0.10;;;20.40;99.90;;;;;;5013654;28;20042;-68
2022/05/23 09:23:05;;;;;;;0.00;0.00;;;20.60;99.90;;;;;;5018647;28;20065;-67
2022/05/23 09:25:30;;;;;;;0.05;0.05;;;20.70;99.90;;;;;;5029293;28;20041;-68
2022/05/23 09:28:11;;;;;;;0.10;0.10;;;20.80;99.90;;;;;;5023945;28;20042;-67
2022/05/23 09:30:38;;;;;;;0.20;0.20;;;20.90;99.90;;;;;;5013610;28;20384;-68
2022/05/23 09:33:14;;;;;;;0.10;0.10;;;20.90;99.90;;;;;;5031106;28;20049;-68
2022/05/23 09:35:43;;;;;;;0.10;0.10;;;20.90;99.90;;;;;;5029329;28;20041;-67
2022/05/23 09:38:19;;;;;;;0.10;0.10;;;20.90;99.90;;;;;;5019388;28;20042;-67
2022/05/23 09:40:45;;;;;;;0.10;0.10;;;21.20;99.90;;;;;;5015305;28;20038;-67
2022/05/23 09:49:07;;;;;;;0.10;0.10;;;21.70;99.90;;;;;;5027146;28;20536;-68
2022/05/23 09:51:55;;;;;;;0.10;0.10;;;21.90;99.90;;;;;;5028584;28;20061;-67
2022/05/23 09:54:35;;;;;;;0.70;0.45;;;21.90;99.90;;;;;;5028648;28;20091;-67
2022/05/23 09:57:04;;;;;;;0.05;0.05;;;21.80;99.90;;;;;;5030527;28;20081;-68
2022/05/23 09:59:36;;;;;;;0.20;0.20;;;22.20;99.90;;;;;;5016679;28;20049;-68
2022/05/23 10:02:36;;;;;;;0.20;0.20;;;22.50;99.90;;;;;;5012712;28;20058;-68
2022/05/23 10:05:04;;;;;;;0.15;0.15;;;22.50;99.90;;;;;;5022014;28;20058;-68
2022/05/23 10:07:36;;;;;;;0.05;0.05;;;22.60;99.90;;;;;;5029960;28;20045;-68
2022/05/23 10:10:21;;;;;;;0.57;0.57;;;22.50;99.90;;;;;;5030367;28;20050;-68
2022/05/23 10:12:48;;;;;;;0.00;0.00;;;22.60;99.90;;;;;;5012653;28;20041;-67
2022/05/23 10:15:25;;;;;;;0.00;0.00;;;22.40;99.90;;;;;;5016792;28;20220;-67
2022/05/23 10:18:04;;;;;;;0.98;0.52;;;22.50;99.90;;;;;;5022109;28;20774;-67
2022/05/23 10:20:40;;;;;;;0.03;0.03;;;23.00;99.90;;;;;;5029680;28;20064;-68
2022/05/23 10:23:21;;;;;;;0.10;0.10;;;23.50;99.90;;;;;;5013498;28;20057;-68
2022/05/23 10:25:55;;;;;;;0.63;0.45;;;23.80;99.90;;;;;;5020210;28;20033;-67
2022/05/23 10:28:44;;;;;;;0.00;0.00;;;23.90;99.90;;;;;;5012522;28;20092;-66
2022/05/23 10:31:19;;;;;;;0.75;0.52;;;24.00;99.90;;;;;;5017330;28;20482;-67
2022/05/23 10:33:50;;;;;;;1.27;0.85;;;23.90;99.90;;;;;;5026752;28;20103;-67
2022/05/23 10:36:25;;;;;;;0.22;0.22;;;23.90;99.90;;;;;;5026756;28;20183;-67
2022/05/23 10:42:09;;;;;;;0.00;0.00;;;24.00;99.90;;;;;;5019677;28;20148;-66
2022/05/23 10:44:41;;;;;;;0.10;0.10;;;24.20;99.90;;;;;;5020014;28;20034;-66
2022/05/23 10:47:28;;;;;;;0.00;0.00;;;24.50;99.90;;;;;;5015851;28;20048;-67
2022/05/23 10:50:20;;;;;;;0.10;0.10;;;24.30;99.90;;;;;;5016019;28;20060;-67
2022/05/23 10:52:53;;;;;;;0.10;0.10;;;24.10;99.90;;;;;;5008712;28;20554;-67
2022/05/23 10:55:26;;;;;;;;;;;24.00;99.90;;;;;;5007359;28;20050;-68
2022/05/23 10:58:09;;;;;;;0.10;0.10;;;24.00;99.90;;;;;;5017443;28;19928;-68
2022/05/23 11:00:54;;;;;;;0.10;0.10;;;24.00;99.90;;;;;;5008969;28;20386;-67
2022/05/23 11:03:32;;;;;;;0.43;0.43;;;24.30;99.90;;;;;;5008528;28;20140;-67
2022/05/23 11:06:14;;;;;;;0.00;0.00;;;24.40;99.90;;;;;;5008065;28;20049;-67
2022/05/23 11:09:03;;;;;;;0.93;0.32;;;24.30;99.90;;;;;;5008706;28;20753;-68
2022/05/23 11:11:51;;;;;;;0.00;0.00;;;24.20;99.90;;;;;;5009144;28;20050;-67
2022/05/23 11:14:16;;;;;;;0.10;0.10;;;24.40;99.90;;;;;;5016585;28;20054;-68
2022/05/23 11:16:59;;;;;;;0.00;0.00;;;24.60;99.90;;;;;;5007981;28;20056;-67
2022/05/23 11:19:56;;;;;;;0.20;0.20;;;24.90;99.90;;;;;;5025984;28;20568;-68
2022/05/23 11:22:31;;;;;;;3.00;1.45;;;24.80;99.90;;;;;;5007379;28;20067;-68
2022/05/23 11:25:12;;;;;;;0.10;0.10;;;24.80;99.90;;;;;;5021282;28;20042;-68
2022/05/23 11:33:46;;;;;;;0.10;0.10;;;24.60;99.90;;;;;;5016773;28;20111;-68
2022/05/23 11:36:23;;;;;;;0.63;0.63;;;24.50;99.90;;;;;;5006622;28;20046;-68
2022/05/23 11:38:50;;;;;;;0.00;0.00;;;24.50;99.90;;;;;;5016405;28;20046;-68
2022/05/23 11:41:37;;;;;;;0.00;0.00;;;24.50;99.90;;;;;;5015349;28;21631;-68
2022/05/23 11:44:35;;;;;;;0.00;0.00;;;24.40;99.90;;;;;;5024647;28;20041;-68
2022/05/23 11:47:11;;;;;;;0.52;0.52;;;24.40;99.90;;;;;;5020425;28;20067;-68
2022/05/23 11:49:43;;;;;;;0.00;0.00;;;24.30;99.90;;;;;;5015402;28;20049;-68
2022/05/23 11:52:24;;;;;;;0.00;0.00;;;24.10;99.90;;;;;;5022907;28;20041;-68
2022/05/23 11:54:50;;;;;;;0.08;0.08;;;24.00;99.90;;;;;;5030679;28;20052;-68
2022/05/23 11:57:31;;;;;;;0.00;0.00;;;23.90;99.90;;;;;;5014660;28;20050;-68
2022/05/23 11:59:56;;;;;;;0.00;0.00;;;23.90;99.90;;;;;;5018076;28;20088;-68
2022/05/23 12:02:25;;;;;;;0.00;0.00;;;23.80;99.90;;;;;;5006470;28;20417;-68
2022/05/23 12:04:57;;;;;;;0.10;0.10;;;23.70;99.90;;;;;;5008455;28;20038;-68
2022/05/23 12:07:34;;;;;;;0.52;0.32;;;23.70;99.90;;;;;;5010839;28;20397;-68
2022/05/23 12:10:25;;;;;;;0.10;0.10;;;23.60;99.90;;;;;;5009083;28;20053;-68
2022/05/23 12:12:52;;;;;;;0.22;0.22;;;23.60;99.90;;;;;;5006961;28;20567;-68
2022/05/23 12:15:42;;;;;;;2.03;0.88;;;23.70;99.90;;;;;;5016060;28;20457;-68
2022/05/23 12:18:11;;;;;;;0.15;0.15;;;23.90;99.90;;;;;;5019712;28;20053;-68
2022/05/23 12:20:45;;;;;;;0.10;0.10;;;24.10;99.90;;;;;;5027184;28;20068;-68
2022/05/23 12:23:16;;;;;;;0.00;0.00;;;24.10;99.90;;;;;;5010246;28;20057;-69
2022/05/23 12:25:42;;;;;;;0.55;0.30;;;24.10;99.90;;;;;;5020465;28;20033;-68
2022/05/23 12:28:14;;;;;;;0.00;0.00;;;24.00;99.90;;;;;;5035420;28;20072;-68
2022/05/23 12:30:43;;;;;;;0.17;0.17;;;24.10;99.90;;;;;;5033525;28;20045;-68
2022/05/23 12:33:20;;;;;;;1.17;0.75;;;24.10;99.90;;;;;;5027449;28;20112;-68
2022/05/23 12:35:52;;;;;;;0.15;0.15;;;24.20;99.90;;;;;;5013434;28;20444;-68
2022/05/23 12:38:36;;;;;;;0.00;0.00;;;24.20;99.90;;;;;;5014989;28;20059;-68
2022/05/23 12:41:17;;;;;;;0.22;0.15;;;24.00;99.90;;;;;;5018012;28;20117;-68
2022/05/23 12:44:00;;;;;;;0.00;0.00;;;24.00;99.90;;;;;;5026640;28;20543;-68
2022/05/23 12:46:35;;;;;;;;;;;24.00;99.90;;;;;;5026936;28;20081;-68
2022/05/23 12:49:26;;;;;;;0.00;0.00;;;23.90;99.90;;;;;;5022510;28;19929;-68
2022/05/23 12:52:10;;;;;;;0.00;0.00;;;23.80;99.90;;;;;;5017996;28;20045;-68
2022/05/23 12:55:24;;;;;;;0.00;0.00;;;23.80;99.90;;;;;;5011939;28;20896;-68
2022/05/23 12:57:52;;;;;;;0.00;0.00;;;23.70;99.90;;;;;;5023227;28;20107;-68
2022/05/23 13:00:20;;;;;;;0.17;0.17;;;23.60;99.90;;;;;;5033233;28;20589;-68
2022/05/23 13:03:01;;;;;;;0.00;0.00;;;23.50;99.90;;;;;;5024765;28;20111;-68
2022/05/23 13:05:38;;;;;;;0.80;0.55;;;23.50;99.90;;;;;;5026489;28;20471;-68
2022/05/23 13:08:25;;;;;;;0.10;0.00;;;23.40;99.90;;;;;;5020793;28;20052;-68
2022/05/23 13:11:03;;;;;;;0.05;0.05;;;23.40;99.90;;;;;;5014465;28;20081;-68
2022/05/23 13:13:36;;;;;;;0.00;0.00;;;23.30;99.90;;;;;;5018535;28;20037;-68
2022/05/23 13:16:28;;;;;;;1.08;0.43;;;23.20;99.90;;;;;;5021406;28;20393;-68
2022/05/23 13:27:13;;;;;;;0.08;0.08;;;23.00;99.90;;;;;;5013865;28;20057;-68
2022/05/23 13:29:39;;;;;;;0.00;0.00;;;22.90;99.90;;;;;;5014383;28;20107;-69
2022/05/23 13:32:10;;;;;;;0.00;0.00;;;22.90;99.90;;;;;;5017672;28;20057;-68
2022/05/23 13:34:40;;;;;;;0.98;0.80;;;22.70;99.90;;;;;;5023834;28;20041;-68
2022/05/23 13:37:07;;;;;;;0.00;0.00;;;22.70;99.90;;;;;;5025139;28;20053;-69
2022/05/23 13:39:42;;;;;;;0.00;0.00;;;22.60;99.90;;;;;;5011224;28;20100;-68
2022/05/23 13:42:19;;;;;;;0.55;0.55;;;22.60;99.90;;;;;;5010799;28;20049;-68
2022/05/23 13:44:45;;;;;;;0.00;0.00;;;22.60;99.90;;;;;;5015629;28;20060;-68
2022/05/23 13:47:18;;;;;;;0.00;0.00;;;22.50;99.90;;;;;;5010337;28;20690;-68
2022/05/23 13:49:50;;;;;;;;;;;22.50;99.90;;;;;;5026799;28;20095;-68
2022/05/23 13:52:23;;;;;;;0.00;0.00;;;22.60;99.90;;;;;;5022460;28;20262;-68
2022/05/23 13:54:54;;;;;;;0.00;0.00;;;22.50;99.90;;;;;;5009720;28;20050;-68
2022/05/23 13:57:19;;;;;;;0.00;0.00;;;22.50;99.90;;;;;;5010009;28;20088;-68
2022/05/23 13:59:51;;;;;;;0.43;0.10;;;22.60;99.90;;;;;;5010503;28;20409;-68
2022/05/23 14:02:20;;;;;;;0.00;0.00;;;22.70;99.90;;;;;;5020815;28;20103;-68
2022/05/23 14:04:47;;;;;;;0.00;0.00;;;22.70;99.90;;;;;;5024296;28;20045;-67
2022/05/23 14:07:16;;;;;;;0.10;0.10;;;22.70;99.90;;;;;;5025812;28;20505;-67